sensor_id;sensor_type;location;lat;lon;timestamp;P1;durP1;ratioP1;P2;durP2;ratioP2
21758;SDS011;11041;50.854;20.580;2023-03-01T00:01:27;93.97;;;45.00;;
21758;SDS011;11041;50.854;20.580;2023-03-01T00:03:56;91.77;;;42.50;;
21758;SDS011;11041;50.854;20.580;2023-03-01T00:06:24;95.40;;;44.43;;
21758;SDS011;11041;50.854;20.580;2023-03-01T00:08:52;91.73;;;43.00;;
21758;SDS011;11041;50.854;20.580;2023-03-01T00:11:20;97.17;;;44.00;;
21758;SDS011;11041;50.854;20.580;2023-03-01T00:13:52;101.73;;;44.67;;
21758;SDS011;11041;50.854;20.580;2023-03-01T00:16:25;94.77;;;44.97;;
21758;SDS011;11041;50.854;20.580;2023-03-01T00:18:56;99.30;;;44.33;;
21758;SDS011;11041;50.854;20.580;2023-03-01T00:21:24;98.60;;;46.03;;
21758;SDS011;11041;50.854;20.580;2023-03-01T00:23:52;104.07;;;46.10;;
21758;SDS011;11041;50.854;20.580;2023-03-01T00:26:20;101.03;;;47.97;;
21758;SDS011;11041;50.854;20.580;2023-03-01T00:28:49;104.30;;;44.67;;
21758;SDS011;11041;50.854;20.580;2023-03-01T00:31:18;97.30;;;43.97;;
21758;SDS011;11041;50.854;20.580;2023-03-01T00:33:48;99.77;;;44.67;;
21758;SDS011;11041;50.854;20.580;2023-03-01T00:36:23;98.53;;;45.00;;
21758;SDS011;11041;50.854;20.580;2023-03-01T00:38:53;99.53;;;47.30;;
21758;SDS011;11041;50.854;20.580;2023-03-01T00:41:21;98.97;;;45.87;;
21758;SDS011;11041;50.854;20.580;2023-03-01T00:43:49;95.40;;;43.90;;
21758;SDS011;11041;50.854;20.580;2023-03-01T00:46:17;91.00;;;41.97;;
21758;SDS011;11041;50.854;20.580;2023-03-01T00:48:46;91.50;;;43.37;;
21758;SDS011;11041;50.854;20.580;2023-03-01T00:53:46;88.73;;;40.30;;
21758;SDS011;11041;50.854;20.580;2023-03-01T00:56:16;93.70;;;44.17;;
21758;SDS011;11041;50.854;20.580;2023-03-01T00:58:43;88.87;;;41.07;;
21758;SDS011;11041;50.854;20.580;2023-03-01T01:01:11;92.50;;;43.80;;
21758;SDS011;11041;50.854;20.580;2023-03-01T01:03:45;114.47;;;54.33;;
21758;SDS011;11041;50.854;20.580;2023-03-01T01:06:20;106.50;;;48.47;;
21758;SDS011;11041;50.854;20.580;2023-03-01T01:08:49;104.73;;;46.13;;
21758;SDS011;11041;50.854;20.580;2023-03-01T01:11:18;114.53;;;50.80;;
21758;SDS011;11041;50.854;20.580;2023-03-01T01:13:46;106.03;;;48.63;;
21758;SDS011;11041;50.854;20.580;2023-03-01T01:16:14;108.00;;;48.60;;
21758;SDS011;11041;50.854;20.580;2023-03-01T01:18:44;113.60;;;49.10;;
21758;SDS011;11041;50.854;20.580;2023-03-01T01:21:12;96.23;;;44.10;;
21758;SDS011;11041;50.854;20.580;2023-03-01T01:23:44;97.17;;;44.63;;
21758;SDS011;11041;50.854;20.580;2023-03-01T01:26:14;99.20;;;45.67;;
21758;SDS011;11041;50.854;20.580;2023-03-01T01:28:47;99.43;;;44.40;;
21758;SDS011;11041;50.854;20.580;2023-03-01T01:31:14;96.33;;;42.53;;
21758;SDS011;11041;50.854;20.580;2023-03-01T01:33:41;89.87;;;41.10;;
21758;SDS011;11041;50.854;20.580;2023-03-01T01:36:09;83.30;;;40.63;;
21758;SDS011;11041;50.854;20.580;2023-03-01T01:38:36;90.87;;;42.43;;
21758;SDS011;11041;50.854;20.580;2023-03-01T01:41:04;98.63;;;44.30;;
21758;SDS011;11041;50.854;20.580;2023-03-01T01:43:37;97.77;;;40.40;;
21758;SDS011;11041;50.854;20.580;2023-03-01T01:46:16;98.47;;;44.20;;
21758;SDS011;11041;50.854;20.580;2023-03-01T01:48:58;102.13;;;45.77;;
21758;SDS011;11041;50.854;20.580;2023-03-01T01:51:32;120.23;;;50.70;;
21758;SDS011;11041;50.854;20.580;2023-03-01T01:54:15;99.07;;;44.33;;
21758;SDS011;11041;50.854;20.580;2023-03-01T01:56:59;103.43;;;47.53;;
21758;SDS011;11041;50.854;20.580;2023-03-01T01:59:32;107.70;;;50.27;;
21758;SDS011;11041;50.854;20.580;2023-03-01T02:02:02;108.13;;;50.07;;
21758;SDS011;11041;50.854;20.580;2023-03-01T02:04:31;112.20;;;50.53;;
21758;SDS011;11041;50.854;20.580;2023-03-01T02:07:20;120.63;;;51.57;;
21758;SDS011;11041;50.854;20.580;2023-03-01T02:09:50;115.23;;;50.23;;
21758;SDS011;11041;50.854;20.580;2023-03-01T02:12:19;95.63;;;45.43;;
21758;SDS011;11041;50.854;20.580;2023-03-01T02:14:51;113.07;;;49.20;;
21758;SDS011;11041;50.854;20.580;2023-03-01T02:17:17;102.63;;;47.17;;
21758;SDS011;11041;50.854;20.580;2023-03-01T02:23:09;106.87;;;47.03;;
21758;SDS011;11041;50.854;20.580;2023-03-01T02:25:36;107.87;;;47.70;;
21758;SDS011;11041;50.854;20.580;2023-03-01T02:28:36;117.53;;;46.37;;
21758;SDS011;11041;50.854;20.580;2023-03-01T02:31:07;106.70;;;46.40;;
21758;SDS011;11041;50.854;20.580;2023-03-01T02:33:55;100.40;;;45.33;;
21758;SDS011;11041;50.854;20.580;2023-03-01T02:36:24;100.33;;;46.03;;
21758;SDS011;11041;50.854;20.580;2023-03-01T02:38:57;106.60;;;46.80;;
21758;SDS011;11041;50.854;20.580;2023-03-01T02:41:27;114.33;;;50.47;;
21758;SDS011;11041;50.854;20.580;2023-03-01T02:44:01;105.20;;;46.83;;
21758;SDS011;11041;50.854;20.580;2023-03-01T02:46:29;97.80;;;45.90;;
21758;SDS011;11041;50.854;20.580;2023-03-01T02:48:56;103.57;;;46.70;;
21758;SDS011;11041;50.854;20.580;2023-03-01T02:56:56;102.77;;;47.00;;
21758;SDS011;11041;50.854;20.580;2023-03-01T02:59:27;101.73;;;44.63;;
21758;SDS011;11041;50.854;20.580;2023-03-01T03:02:05;115.97;;;49.17;;
21758;SDS011;11041;50.854;20.580;2023-03-01T03:07:41;103.13;;;45.10;;
21758;SDS011;11041;50.854;20.580;2023-03-01T03:10:12;115.13;;;50.03;;
21758;SDS011;11041;50.854;20.580;2023-03-01T03:12:49;109.20;;;47.47;;
21758;SDS011;11041;50.854;20.580;2023-03-01T03:15:23;103.00;;;45.00;;
21758;SDS011;11041;50.854;20.580;2023-03-01T03:17:52;85.57;;;38.70;;
21758;SDS011;11041;50.854;20.580;2023-03-01T03:20:20;89.60;;;38.77;;
21758;SDS011;11041;50.854;20.580;2023-03-01T03:22:52;90.43;;;39.30;;
21758;SDS011;11041;50.854;20.580;2023-03-01T03:25:22;76.90;;;34.27;;
21758;SDS011;11041;50.854;20.580;2023-03-01T03:27:50;81.87;;;36.40;;
21758;SDS011;11041;50.854;20.580;2023-03-01T03:30:23;75.77;;;35.00;;
21758;SDS011;11041;50.854;20.580;2023-03-01T03:32:53;56.40;;;27.07;;
21758;SDS011;11041;50.854;20.580;2023-03-01T03:35:26;64.07;;;28.00;;
21758;SDS011;11041;50.854;20.580;2023-03-01T03:37:59;80.03;;;35.87;;
21758;SDS011;11041;50.854;20.580;2023-03-01T03:40:33;97.30;;;43.23;;
21758;SDS011;11041;50.854;20.580;2023-03-01T03:43:09;95.53;;;43.63;;
21758;SDS011;11041;50.854;20.580;2023-03-01T03:45:43;129.67;;;55.73;;
21758;SDS011;11041;50.854;20.580;2023-03-01T03:48:11;123.83;;;54.40;;
21758;SDS011;11041;50.854;20.580;2023-03-01T03:50:39;139.43;;;60.93;;
21758;SDS011;11041;50.854;20.580;2023-03-01T03:53:08;149.07;;;64.33;;
21758;SDS011;11041;50.854;20.580;2023-03-01T03:55:37;135.20;;;60.93;;
21758;SDS011;11041;50.854;20.580;2023-03-01T03:58:05;149.33;;;61.23;;
21758;SDS011;11041;50.854;20.580;2023-03-01T04:00:34;145.70;;;60.57;;
21758;SDS011;11041;50.854;20.580;2023-03-01T04:03:10;122.87;;;54.50;;
21758;SDS011;11041;50.854;20.580;2023-03-01T04:05:40;112.50;;;47.97;;
21758;SDS011;11041;50.854;20.580;2023-03-01T04:08:07;96.83;;;42.13;;
21758;SDS011;11041;50.854;20.580;2023-03-01T04:10:36;100.57;;;46.60;;
21758;SDS011;11041;50.854;20.580;2023-03-01T04:13:13;97.10;;;40.37;;
21758;SDS011;11041;50.854;20.580;2023-03-01T04:15:47;98.47;;;45.83;;
21758;SDS011;11041;50.854;20.580;2023-03-01T04:18:19;87.87;;;38.77;;
21758;SDS011;11041;50.854;20.580;2023-03-01T04:20:49;78.40;;;38.27;;
21758;SDS011;11041;50.854;20.580;2023-03-01T04:23:18;83.83;;;38.03;;
21758;SDS011;11041;50.854;20.580;2023-03-01T04:25:53;72.57;;;32.60;;
21758;SDS011;11041;50.854;20.580;2023-03-01T04:28:29;81.70;;;33.33;;
21758;SDS011;11041;50.854;20.580;2023-03-01T04:31:02;63.43;;;28.73;;
21758;SDS011;11041;50.854;20.580;2023-03-01T04:33:45;67.87;;;29.70;;
21758;SDS011;11041;50.854;20.580;2023-03-01T04:36:18;55.33;;;26.50;;
21758;SDS011;11041;50.854;20.580;2023-03-01T04:38:48;63.47;;;28.03;;
21758;SDS011;11041;50.854;20.580;2023-03-01T04:41:16;60.67;;;26.50;;
21758;SDS011;11041;50.854;20.580;2023-03-01T04:43:44;64.80;;;25.87;;
21758;SDS011;11041;50.854;20.580;2023-03-01T04:46:12;54.77;;;25.47;;
21758;SDS011;11041;50.854;20.580;2023-03-01T04:48:42;58.57;;;28.40;;
21758;SDS011;11041;50.854;20.580;2023-03-01T04:51:12;58.83;;;27.37;;
21758;SDS011;11041;50.854;20.580;2023-03-01T04:53:39;54.47;;;24.60;;
21758;SDS011;11041;50.854;20.580;2023-03-01T04:56:07;53.67;;;25.20;;
21758;SDS011;11041;50.854;20.580;2023-03-01T04:58:34;52.53;;;26.17;;
21758;SDS011;11041;50.854;20.580;2023-03-01T05:01:07;50.03;;;24.30;;
21758;SDS011;11041;50.854;20.580;2023-03-01T05:03:49;58.27;;;26.50;;
21758;SDS011;11041;50.854;20.580;2023-03-01T05:06:17;50.70;;;25.27;;
21758;SDS011;11041;50.854;20.580;2023-03-01T05:08:45;57.47;;;28.67;;
21758;SDS011;11041;50.854;20.580;2023-03-01T05:11:12;58.33;;;26.07;;
21758;SDS011;11041;50.854;20.580;2023-03-01T05:13:39;75.93;;;26.73;;
21758;SDS011;11041;50.854;20.580;2023-03-01T05:16:06;60.73;;;26.00;;
21758;SDS011;11041;50.854;20.580;2023-03-01T05:18:36;57.50;;;27.30;;
21758;SDS011;11041;50.854;20.580;2023-03-01T05:21:04;50.20;;;24.63;;
21758;SDS011;11041;50.854;20.580;2023-03-01T05:23:34;54.43;;;24.90;;
21758;SDS011;11041;50.854;20.580;2023-03-01T05:26:02;59.80;;;28.40;;
21758;SDS011;11041;50.854;20.580;2023-03-01T05:28:31;64.90;;;31.57;;
21758;SDS011;11041;50.854;20.580;2023-03-01T05:30:59;70.13;;;32.40;;
21758;SDS011;11041;50.854;20.580;2023-03-01T05:33:26;68.83;;;30.43;;
21758;SDS011;11041;50.854;20.580;2023-03-01T05:35:53;63.43;;;29.43;;
21758;SDS011;11041;50.854;20.580;2023-03-01T05:38:20;70.00;;;31.57;;
21758;SDS011;11041;50.854;20.580;2023-03-01T05:40:48;85.00;;;35.87;;
21758;SDS011;11041;50.854;20.580;2023-03-01T05:43:15;82.57;;;37.87;;
21758;SDS011;11041;50.854;20.580;2023-03-01T05:45:43;98.40;;;44.10;;
21758;SDS011;11041;50.854;20.580;2023-03-01T05:48:11;103.20;;;47.13;;
21758;SDS011;11041;50.854;20.580;2023-03-01T05:50:42;97.23;;;46.07;;
21758;SDS011;11041;50.854;20.580;2023-03-01T05:53:19;97.83;;;45.47;;
21758;SDS011;11041;50.854;20.580;2023-03-01T05:55:48;69.13;;;33.90;;
21758;SDS011;11041;50.854;20.580;2023-03-01T05:58:16;62.20;;;31.03;;
21758;SDS011;11041;50.854;20.580;2023-03-01T07:39:13;156.53;;;72.07;;
21758;SDS011;11041;50.854;20.580;2023-03-01T07:41:39;158.13;;;71.27;;
21758;SDS011;11041;50.854;20.580;2023-03-01T07:44:06;169.10;;;74.60;;
21758;SDS011;11041;50.854;20.580;2023-03-01T07:46:32;148.87;;;70.03;;
21758;SDS011;11041;50.854;20.580;2023-03-01T07:48:59;147.03;;;64.60;;
21758;SDS011;11041;50.854;20.580;2023-03-01T07:51:25;151.00;;;65.23;;
21758;SDS011;11041;50.854;20.580;2023-03-01T07:53:52;137.03;;;65.53;;
21758;SDS011;11041;50.854;20.580;2023-03-01T07:56:18;143.83;;;64.90;;
21758;SDS011;11041;50.854;20.580;2023-03-01T07:58:46;137.60;;;64.57;;
21758;SDS011;11041;50.854;20.580;2023-03-01T08:01:14;128.60;;;60.77;;
21758;SDS011;11041;50.854;20.580;2023-03-01T08:03:43;113.33;;;56.80;;
21758;SDS011;11041;50.854;20.580;2023-03-01T08:06:12;98.30;;;50.33;;
21758;SDS011;11041;50.854;20.580;2023-03-01T08:08:41;98.37;;;46.43;;
21758;SDS011;11041;50.854;20.580;2023-03-01T08:11:10;98.30;;;48.30;;
21758;SDS011;11041;50.854;20.580;2023-03-01T08:13:39;61.00;;;31.43;;
21758;SDS011;11041;50.854;20.580;2023-03-01T08:16:07;69.40;;;35.40;;
21758;SDS011;11041;50.854;20.580;2023-03-01T08:18:38;44.63;;;23.97;;
21758;SDS011;11041;50.854;20.580;2023-03-01T08:21:05;66.07;;;33.87;;
21758;SDS011;11041;50.854;20.580;2023-03-01T08:23:36;63.72;;;35.33;;
21758;SDS011;11041;50.854;20.580;2023-03-01T08:26:19;71.13;;;38.83;;
21758;SDS011;11041;50.854;20.580;2023-03-01T08:28:47;72.28;;;36.75;;
21758;SDS011;11041;50.854;20.580;2023-03-01T08:33:47;43.05;;;17.00;;
21758;SDS011;11041;50.854;20.580;2023-03-01T08:36:20;71.80;;;37.65;;
21758;SDS011;11041;50.854;20.580;2023-03-01T08:38:52;82.73;;;44.73;;
21758;SDS011;11041;50.854;20.580;2023-03-01T08:41:19;60.78;;;34.05;;
21758;SDS011;11041;50.854;20.580;2023-03-01T08:43:46;56.92;;;37.70;;
21758;SDS011;11041;50.854;20.580;2023-03-01T08:46:13;51.80;;;26.17;;
21758;SDS011;11041;50.854;20.580;2023-03-01T08:48:40;47.00;;;27.08;;
21758;SDS011;11041;50.854;20.580;2023-03-01T08:51:15;52.65;;;33.25;;
21758;SDS011;11041;50.854;20.580;2023-03-01T08:53:44;61.28;;;29.05;;
21758;SDS011;11041;50.854;20.580;2023-03-01T08:56:12;55.17;;;33.30;;
21758;SDS011;11041;50.854;20.580;2023-03-01T08:58:40;48.60;;;27.45;;
21758;SDS011;11041;50.854;20.580;2023-03-01T09:01:14;50.85;;;27.73;;
21758;SDS011;11041;50.854;20.580;2023-03-01T09:03:44;134.80;;;71.07;;
21758;SDS011;11041;50.854;20.580;2023-03-01T09:06:11;82.18;;;43.97;;
21758;SDS011;11041;50.854;20.580;2023-03-01T09:08:44;49.17;;;28.30;;
21758;SDS011;11041;50.854;20.580;2023-03-01T09:11:14;62.55;;;35.42;;
21758;SDS011;11041;50.854;20.580;2023-03-01T09:13:45;41.45;;;23.23;;
21758;SDS011;11041;50.854;20.580;2023-03-01T09:16:13;48.92;;;27.55;;
21758;SDS011;11041;50.854;20.580;2023-03-01T09:18:45;47.67;;;25.40;;
21758;SDS011;11041;50.854;20.580;2023-03-01T09:21:16;42.25;;;28.35;;
21758;SDS011;11041;50.854;20.580;2023-03-01T09:23:45;42.97;;;26.67;;
21758;SDS011;11041;50.854;20.580;2023-03-01T09:26:19;39.97;;;23.00;;
21758;SDS011;11041;50.854;20.580;2023-03-01T09:28:50;41.70;;;25.92;;
21758;SDS011;11041;50.854;20.580;2023-03-01T09:31:20;43.72;;;24.45;;
21758;SDS011;11041;50.854;20.580;2023-03-01T09:33:50;33.15;;;19.85;;
21758;SDS011;11041;50.854;20.580;2023-03-01T09:36:20;32.45;;;18.08;;
21758;SDS011;11041;50.854;20.580;2023-03-01T09:38:51;38.10;;;21.23;;
21758;SDS011;11041;50.854;20.580;2023-03-01T09:44:20;38.35;;;22.15;;
21758;SDS011;11041;50.854;20.580;2023-03-01T09:47:24;33.53;;;16.67;;
21758;SDS011;11041;50.854;20.580;2023-03-01T09:52:52;31.08;;;17.67;;
21758;SDS011;11041;50.854;20.580;2023-03-01T09:58:53;41.85;;;23.60;;
21758;SDS011;11041;50.854;20.580;2023-03-01T10:04:42;43.42;;;25.05;;
21758;SDS011;11041;50.854;20.580;2023-03-01T10:10:06;38.92;;;21.77;;
21758;SDS011;11041;50.854;20.580;2023-03-01T10:12:41;33.90;;;21.40;;
21758;SDS011;11041;50.854;20.580;2023-03-01T10:15:15;38.05;;;21.88;;
21758;SDS011;11041;50.854;20.580;2023-03-01T10:17:51;38.92;;;22.60;;
21758;SDS011;11041;50.854;20.580;2023-03-01T10:20:28;41.17;;;24.63;;
21758;SDS011;11041;50.854;20.580;2023-03-01T10:23:12;37.22;;;21.10;;
21758;SDS011;11041;50.854;20.580;2023-03-01T10:31:12;31.63;;;18.15;;
21758;SDS011;11041;50.854;20.580;2023-03-01T10:33:46;33.03;;;18.35;;
21758;SDS011;11041;50.854;20.580;2023-03-01T10:36:13;27.98;;;15.30;;
21758;SDS011;11041;50.854;20.580;2023-03-01T10:38:51;34.90;;;19.30;;
21758;SDS011;11041;50.854;20.580;2023-03-01T10:41:26;34.30;;;18.20;;
21758;SDS011;11041;50.854;20.580;2023-03-01T10:43:54;36.00;;;18.85;;
21758;SDS011;11041;50.854;20.580;2023-03-01T10:46:30;33.75;;;20.08;;
21758;SDS011;11041;50.854;20.580;2023-03-01T10:51:51;39.10;;;21.98;;
21758;SDS011;11041;50.854;20.580;2023-03-01T10:54:25;35.28;;;21.15;;
21758;SDS011;11041;50.854;20.580;2023-03-01T10:56:59;34.38;;;19.67;;
21758;SDS011;11041;50.854;20.580;2023-03-01T10:59:32;32.67;;;20.85;;
21758;SDS011;11041;50.854;20.580;2023-03-01T11:02:20;33.65;;;19.50;;
21758;SDS011;11041;50.854;20.580;2023-03-01T11:07:27;33.65;;;19.55;;
21758;SDS011;11041;50.854;20.580;2023-03-01T11:09:54;35.13;;;20.42;;
21758;SDS011;11041;50.854;20.580;2023-03-01T11:12:21;34.22;;;20.05;;
21758;SDS011;11041;50.854;20.580;2023-03-01T11:14:50;35.05;;;18.98;;
21758;SDS011;11041;50.854;20.580;2023-03-01T11:17:21;29.73;;;18.08;;
21758;SDS011;11041;50.854;20.580;2023-03-01T11:22:49;26.65;;;18.40;;
21758;SDS011;11041;50.854;20.580;2023-03-01T11:25:23;35.42;;;18.08;;
21758;SDS011;11041;50.854;20.580;2023-03-01T11:27:58;28.90;;;17.42;;
21758;SDS011;11041;50.854;20.580;2023-03-01T11:42:28;27.45;;;14.73;;
21758;SDS011;11041;50.854;20.580;2023-03-01T11:45:13;22.33;;;12.30;;
21758;SDS011;11041;50.854;20.580;2023-03-01T11:56:34;22.52;;;12.70;;
21758;SDS011;11041;50.854;20.580;2023-03-01T12:05:13;22.80;;;14.23;;
21758;SDS011;11041;50.854;20.580;2023-03-01T12:08:12;21.95;;;13.50;;
21758;SDS011;11041;50.854;20.580;2023-03-01T12:13:59;25.00;;;10.48;;
21758;SDS011;11041;50.854;20.580;2023-03-01T12:28:51;20.23;;;13.00;;
21758;SDS011;11041;50.854;20.580;2023-03-01T12:37:47;27.85;;;15.27;;
21758;SDS011;11041;50.854;20.580;2023-03-01T12:41:08;22.65;;;13.93;;
21758;SDS011;11041;50.854;20.580;2023-03-01T12:47:31;20.15;;;13.55;;
21758;SDS011;11041;50.854;20.580;2023-03-01T12:50:22;21.08;;;13.27;;
21758;SDS011;11041;50.854;20.580;2023-03-01T12:52:58;12.60;;;7.80;;
21758;SDS011;11041;50.854;20.580;2023-03-01T12:55:33;19.42;;;9.15;;
21758;SDS011;11041;50.854;20.580;2023-03-01T13:01:08;20.45;;;11.98;;
21758;SDS011;11041;50.854;20.580;2023-03-01T13:04:28;19.60;;;10.82;;
21758;SDS011;11041;50.854;20.580;2023-03-01T13:07:15;18.05;;;11.43;;
21758;SDS011;11041;50.854;20.580;2023-03-01T13:13:08;15.95;;;10.73;;
21758;SDS011;11041;50.854;20.580;2023-03-01T13:15:47;18.40;;;11.40;;
21758;SDS011;11041;50.854;20.580;2023-03-01T13:20:48;18.88;;;11.02;;
21758;SDS011;11041;50.854;20.580;2023-03-01T13:23:26;24.20;;;13.23;;
21758;SDS011;11041;50.854;20.580;2023-03-01T13:28:37;19.80;;;10.77;;
21758;SDS011;11041;50.854;20.580;2023-03-01T13:33:51;15.25;;;11.27;;
21758;SDS011;11041;50.854;20.580;2023-03-01T13:37:03;17.10;;;10.55;;
21758;SDS011;11041;50.854;20.580;2023-03-01T13:42:25;14.50;;;10.00;;
21758;SDS011;11041;50.854;20.580;2023-03-01T13:44:59;17.40;;;9.88;;
21758;SDS011;11041;50.854;20.580;2023-03-01T13:47:28;15.15;;;11.45;;
21758;SDS011;11041;50.854;20.580;2023-03-01T13:49:59;17.08;;;10.23;;
21758;SDS011;11041;50.854;20.580;2023-03-01T13:55:06;16.60;;;10.60;;
21758;SDS011;11041;50.854;20.580;2023-03-01T13:57:41;18.77;;;10.10;;
21758;SDS011;11041;50.854;20.580;2023-03-01T14:03:09;15.65;;;9.65;;
21758;SDS011;11041;50.854;20.580;2023-03-01T14:05:43;13.50;;;9.45;;
21758;SDS011;11041;50.854;20.580;2023-03-01T14:08:35;17.15;;;9.50;;
21758;SDS011;11041;50.854;20.580;2023-03-01T14:11:08;15.75;;;9.40;;
21758;SDS011;11041;50.854;20.580;2023-03-01T14:19:45;15.75;;;10.20;;
21758;SDS011;11041;50.854;20.580;2023-03-01T14:22:20;14.40;;;8.40;;
21758;SDS011;11041;50.854;20.580;2023-03-01T14:24:58;15.40;;;9.80;;
21758;SDS011;11041;50.854;20.580;2023-03-01T14:27:30;20.17;;;10.27;;
21758;SDS011;11041;50.854;20.580;2023-03-01T14:32:51;19.40;;;10.93;;
21758;SDS011;11041;50.854;20.580;2023-03-01T14:35:31;11.93;;;8.52;;
21758;SDS011;11041;50.854;20.580;2023-03-01T14:38:02;14.77;;;9.38;;
21758;SDS011;11041;50.854;20.580;2023-03-01T14:40:30;16.02;;;9.35;;
21758;SDS011;11041;50.854;20.580;2023-03-01T14:43:08;17.27;;;8.93;;
21758;SDS011;11041;50.854;20.580;2023-03-01T14:45:42;16.65;;;9.43;;
21758;SDS011;11041;50.854;20.580;2023-03-01T14:48:15;15.82;;;10.15;;
21758;SDS011;11041;50.854;20.580;2023-03-01T14:50:43;15.25;;;10.30;;
21758;SDS011;11041;50.854;20.580;2023-03-01T14:53:21;35.30;;;16.83;;
21758;SDS011;11041;50.854;20.580;2023-03-01T14:55:54;27.13;;;14.10;;
21758;SDS011;11041;50.854;20.580;2023-03-01T14:58:31;38.42;;;19.05;;
21758;SDS011;11041;50.854;20.580;2023-03-01T15:01:00;29.67;;;14.38;;
21758;SDS011;11041;50.854;20.580;2023-03-01T15:03:31;18.52;;;9.95;;
21758;SDS011;11041;50.854;20.580;2023-03-01T15:06:05;16.17;;;8.35;;
21758;SDS011;11041;50.854;20.580;2023-03-01T15:08:35;14.45;;;9.05;;
21758;SDS011;11041;50.854;20.580;2023-03-01T15:13:40;15.25;;;8.98;;
21758;SDS011;11041;50.854;20.580;2023-03-01T15:16:11;19.10;;;9.55;;
21758;SDS011;11041;50.854;20.580;2023-03-01T15:18:52;17.00;;;9.80;;
21758;SDS011;11041;50.854;20.580;2023-03-01T15:21:24;18.67;;;9.85;;
21758;SDS011;11041;50.854;20.580;2023-03-01T15:24:20;18.85;;;10.57;;
21758;SDS011;11041;50.854;20.580;2023-03-01T15:26:51;16.45;;;9.18;;
21758;SDS011;11041;50.854;20.580;2023-03-01T15:29:28;17.83;;;10.57;;
21758;SDS011;11041;50.854;20.580;2023-03-01T15:32:00;17.48;;;9.20;;
21758;SDS011;11041;50.854;20.580;2023-03-01T15:34:36;16.25;;;9.35;;
21758;SDS011;11041;50.854;20.580;2023-03-01T15:37:05;16.88;;;9.57;;
21758;SDS011;11041;50.854;20.580;2023-03-01T15:43:04;20.88;;;10.00;;
21758;SDS011;11041;50.854;20.580;2023-03-01T15:45:32;29.77;;;14.25;;
21758;SDS011;11041;50.854;20.580;2023-03-01T15:48:00;19.60;;;10.15;;
21758;SDS011;11041;50.854;20.580;2023-03-01T15:50:32;18.63;;;9.32;;
21758;SDS011;11041;50.854;20.580;2023-03-01T15:53:06;18.10;;;8.48;;
21758;SDS011;11041;50.854;20.580;2023-03-01T15:55:41;13.18;;;7.32;;
21758;SDS011;11041;50.854;20.580;2023-03-01T15:58:23;21.95;;;6.53;;
21758;SDS011;11041;50.854;20.580;2023-03-01T16:13:48;16.75;;;6.82;;
21758;SDS011;11041;50.854;20.580;2023-03-01T16:16:16;15.55;;;7.75;;
21758;SDS011;11041;50.854;20.580;2023-03-01T16:18:43;19.00;;;8.77;;
21758;SDS011;11041;50.854;20.580;2023-03-01T16:21:16;22.40;;;8.35;;
21758;SDS011;11041;50.854;20.580;2023-03-01T16:23:50;127.78;;;32.92;;
21758;SDS011;11041;50.854;20.580;2023-03-01T16:26:19;12.38;;;7.05;;
21758;SDS011;11041;50.854;20.580;2023-03-01T16:28:45;21.00;;;10.95;;
21758;SDS011;11041;50.854;20.580;2023-03-01T16:31:18;86.22;;;30.30;;
21758;SDS011;11041;50.854;20.580;2023-03-01T16:37:16;20.77;;;10.75;;
21758;SDS011;11041;50.854;20.580;2023-03-01T16:39:44;32.50;;;13.13;;
21758;SDS011;11041;50.854;20.580;2023-03-01T16:42:12;31.40;;;13.55;;
21758;SDS011;11041;50.854;20.580;2023-03-01T16:44:39;51.05;;;18.15;;
21758;SDS011;11041;50.854;20.580;2023-03-01T16:47:09;51.55;;;19.73;;
21758;SDS011;11041;50.854;20.580;2023-03-01T16:49:53;85.70;;;27.42;;
21758;SDS011;11041;50.854;20.580;2023-03-01T16:52:37;79.15;;;27.48;;
21758;SDS011;11041;50.854;20.580;2023-03-01T16:55:04;40.42;;;16.30;;
21758;SDS011;11041;50.854;20.580;2023-03-01T16:57:35;52.25;;;18.80;;
21758;SDS011;11041;50.854;20.580;2023-03-01T17:00:07;78.07;;;26.52;;
21758;SDS011;11041;50.854;20.580;2023-03-01T17:02:38;43.15;;;18.55;;
21758;SDS011;11041;50.854;20.580;2023-03-01T17:05:07;31.48;;;12.75;;
21758;SDS011;11041;50.854;20.580;2023-03-01T17:07:39;36.63;;;15.23;;
21758;SDS011;11041;50.854;20.580;2023-03-01T17:10:09;24.02;;;12.05;;
21758;SDS011;11041;50.854;20.580;2023-03-01T17:12:36;26.17;;;11.90;;
21758;SDS011;11041;50.854;20.580;2023-03-01T17:15:04;38.65;;;19.80;;
21758;SDS011;11041;50.854;20.580;2023-03-01T17:17:32;170.35;;;61.05;;
21758;SDS011;11041;50.854;20.580;2023-03-01T17:20:03;430.77;;;150.32;;
21758;SDS011;11041;50.854;20.580;2023-03-01T17:23:01;37.60;;;19.23;;
21758;SDS011;11041;50.854;20.580;2023-03-01T17:26:40;24.60;;;14.82;;
21758;SDS011;11041;50.854;20.580;2023-03-01T17:34:03;92.68;;;34.08;;
21758;SDS011;11041;50.854;20.580;2023-03-01T17:37:40;69.53;;;28.00;;
21758;SDS011;11041;50.854;20.580;2023-03-01T17:44:16;86.18;;;36.50;;
21758;SDS011;11041;50.854;20.580;2023-03-01T17:47:20;40.60;;;17.63;;
21758;SDS011;11041;50.854;20.580;2023-03-01T17:50:29;41.27;;;22.27;;
21758;SDS011;11041;50.854;20.580;2023-03-01T17:54:00;31.67;;;17.35;;
21758;SDS011;11041;50.854;20.580;2023-03-01T17:57:28;34.17;;;16.58;;
21758;SDS011;11041;50.854;20.580;2023-03-01T17:59:54;104.03;;;53.27;;
21758;SDS011;11041;50.854;20.580;2023-03-01T18:02:21;61.10;;;29.83;;
21758;SDS011;11041;50.854;20.580;2023-03-01T18:04:47;34.87;;;17.03;;
21758;SDS011;11041;50.854;20.580;2023-03-01T18:07:14;30.07;;;14.30;;
21758;SDS011;11041;50.854;20.580;2023-03-01T18:09:41;34.93;;;15.63;;
21758;SDS011;11041;50.854;20.580;2023-03-01T18:12:08;31.60;;;15.70;;
21758;SDS011;11041;50.854;20.580;2023-03-01T18:14:35;29.77;;;14.60;;
21758;SDS011;11041;50.854;20.580;2023-03-01T18:17:02;28.60;;;14.37;;
21758;SDS011;11041;50.854;20.580;2023-03-01T18:19:37;37.63;;;15.45;;
21758;SDS011;11041;50.854;20.580;2023-03-01T18:22:08;33.47;;;16.20;;
21758;SDS011;11041;50.854;20.580;2023-03-01T18:24:35;34.88;;;15.70;;
21758;SDS011;11041;50.854;20.580;2023-03-01T18:27:04;36.13;;;15.80;;
21758;SDS011;11041;50.854;20.580;2023-03-01T18:29:31;34.57;;;17.20;;
21758;SDS011;11041;50.854;20.580;2023-03-01T18:31:58;37.53;;;18.27;;
21758;SDS011;11041;50.854;20.580;2023-03-01T18:34:25;39.83;;;17.58;;
21758;SDS011;11041;50.854;20.580;2023-03-01T18:36:53;46.67;;;21.07;;
21758;SDS011;11041;50.854;20.580;2023-03-01T18:39:21;49.20;;;21.57;;
21758;SDS011;11041;50.854;20.580;2023-03-01T18:41:49;46.17;;;20.93;;
21758;SDS011;11041;50.854;20.580;2023-03-01T18:44:16;42.13;;;20.07;;
21758;SDS011;11041;50.854;20.580;2023-03-01T18:46:43;49.43;;;21.27;;
21758;SDS011;11041;50.854;20.580;2023-03-01T18:49:14;48.90;;;21.13;;
21758;SDS011;11041;50.854;20.580;2023-03-01T18:51:41;39.53;;;20.17;;
21758;SDS011;11041;50.854;20.580;2023-03-01T18:54:09;47.37;;;20.13;;
21758;SDS011;11041;50.854;20.580;2023-03-01T18:56:37;48.13;;;21.07;;
21758;SDS011;11041;50.854;20.580;2023-03-01T18:59:04;48.77;;;20.40;;
21758;SDS011;11041;50.854;20.580;2023-03-01T19:01:31;50.00;;;22.33;;